Time;durP1;ratioP1;P1;durP2;ratioP2;P2;SDS_P1;SDS_P2;PMS_P1;PMS_P2;Temp;Humidity;BMP_temperature;BMP_pressure;BME280_temperature;BME280_humidity;BME280_pressure;Samples;Min_cycle;Max_cycle;Signal;HPM_P1;HPM_P2
2022/08/28 00:00:13;;;;;;;16.38;7.10;;;;;;;24.10;75.64;99042.50;5111658;28;20705;-57
2022/08/28 00:02:40;;;;;;;17.50;7.80;;;;;;;24.10;75.73;99053.13;5111080;28;20222;-56
2022/08/28 00:05:10;;;;;;;8.13;7.32;;;;;;;24.03;76.66;99049.38;5111898;28;20190;-56
2022/08/28 00:07:37;;;;;;;15.00;7.63;;;;;;;23.95;77.15;99046.56;5111741;28;20198;-64
2022/08/28 00:10:08;;;;;;;13.35;7.70;;;;;;;23.98;77.08;99052.44;5111615;28;20205;-65
2022/08/28 00:12:35;;;;;;;10.63;7.32;;;;;;;23.93;77.47;99043.25;5111609;28;20190;-57
2022/08/28 00:15:03;;;;;;;15.40;7.40;;;;;;;23.82;77.76;99031.78;5110208;28;20194;-58
2022/08/28 00:17:30;;;;;;;25.27;7.95;;;;;;;23.89;77.87;99046.16;5110729;28;20190;-57
2022/08/28 00:19:57;;;;;;;11.00;7.03;;;;;;;23.85;77.89;99047.41;5111207;28;20309;-56
2022/08/28 00:22:24;;;;;;;14.38;7.25;;;;;;;23.84;78.28;99040.44;5111580;28;20222;-57
2022/08/28 00:24:51;;;;;;;13.55;7.97;;;;;;;23.67;79.58;99049.09;5111600;28;20205;-57
2022/08/28 00:30:04;;;;;;;18.10;7.07;;;;;;;23.52;80.54;99037.19;5111360;28;20247;-58
2022/08/28 00:32:33;;;;;;;11.93;6.95;;;;;;;23.43;81.59;99043.28;5111291;28;20290;-57
2022/08/28 00:35:01;;;;;;;13.85;7.63;;;;;;;23.43;81.75;99045.94;5111155;28;20285;-57
2022/08/28 00:37:28;;;;;;;12.80;7.72;;;;;;;23.36;82.18;99050.13;5111162;28;20743;-57
2022/08/28 00:39:55;;;;;;;11.95;7.28;;;;;;;23.29;82.59;99044.50;5111176;28;20201;-58
2022/08/28 00:42:24;;;;;;;15.10;7.47;;;;;;;23.30;82.93;99050.66;5111385;28;20671;-58
2022/08/28 00:44:51;;;;;;;15.80;7.50;;;;;;;23.21;83.16;99047.00;5111034;28;20201;-58
2022/08/28 00:47:18;;;;;;;17.02;7.95;;;;;;;23.12;84.09;99047.81;5111337;28;20238;-58
2022/08/28 00:49:50;;;;;;;13.75;8.85;;;;;;;23.12;83.92;99040.72;5110943;28;20350;-57
2022/08/28 00:52:17;;;;;;;10.13;7.80;;;;;;;23.22;83.66;99042.56;5110752;28;20217;-58
2022/08/28 00:54:49;;;;;;;20.30;7.88;;;;;;;23.34;83.07;99052.06;5110762;28;20213;-57
2022/08/28 00:57:20;;;;;;;13.90;7.63;;;;;;;23.29;83.84;99041.03;5110975;28;20289;-57
2022/08/28 00:59:50;;;;;;;12.10;8.32;;;;;;;23.21;84.33;99043.53;5111534;28;20658;-58
2022/08/28 01:02:18;;;;;;;14.13;7.72;;;;;;;23.13;84.88;99042.41;5110886;28;20233;-58
2022/08/28 01:04:45;;;;;;;15.30;7.70;;;;;;;23.11;85.42;99043.50;5110957;28;20202;-58
2022/08/28 01:07:14;;;;;;;16.60;7.40;;;;;;;23.02;85.42;99053.09;5110818;28;20583;-58
2022/08/28 01:09:44;;;;;;;17.60;8.10;;;;;;;23.02;85.76;99055.75;5110638;28;20204;-57
2022/08/28 01:12:14;;;;;;;15.60;8.43;;;;;;;23.10;85.72;99052.41;5110545;28;20195;-58
2022/08/28 01:14:44;;;;;;;17.25;8.85;;;;;;;23.00;86.67;99062.97;5109535;28;20277;-58
2022/08/28 01:17:15;;;;;;;16.15;8.57;;;;;;;23.00;87.03;99057.69;5110189;28;20210;-58
2022/08/28 01:19:47;;;;;;;11.27;8.68;;;;;;;22.99;87.09;99057.81;5110318;28;20236;-66
2022/08/28 01:22:20;;;;;;;12.68;7.95;;;;;;;23.02;86.49;99052.25;5110193;28;20195;-65
2022/08/28 01:24:51;;;;;;;17.60;8.23;;;;;;;23.02;85.90;99054.91;5110480;28;20251;-66
2022/08/28 01:27:18;;;;;;;10.40;7.43;;;;;;;22.93;85.71;99060.97;5110306;28;20195;-65
2022/08/28 01:29:45;;;;;;;12.95;8.38;;;;;;;22.92;85.67;99062.78;5110116;28;20200;-57
2022/08/28 01:32:12;;;;;;;12.63;8.00;;;;;;;22.94;84.78;99063.50;5110371;28;20216;-57
2022/08/28 01:34:40;;;;;;;10.63;7.30;;;;;;;23.00;83.83;99070.91;5110242;28;20285;-57
2022/08/28 01:37:07;;;;;;;11.35;7.90;;;;;;;23.02;83.38;99076.09;5110088;28;20286;-57
2022/08/28 01:39:34;;;;;;;11.35;7.53;;;;;;;23.04;83.31;99079.41;5110217;28;20216;-56
2022/08/28 01:42:02;;;;;;;12.77;8.27;;;;;;;23.02;83.53;99076.09;5110435;28;20224;-57
2022/08/28 01:44:32;;;;;;;13.48;8.30;;;;;;;23.04;83.69;99087.34;5110206;28;20218;-58
2022/08/28 01:46:59;;;;;;;11.55;8.82;;;;;;;22.98;84.06;99078.16;5110078;28;20198;-65
2022/08/28 01:49:28;;;;;;;13.38;8.00;;;;;;;22.92;84.68;99075.19;5110531;28;20279;-65
2022/08/28 01:51:56;;;;;;;10.60;7.53;;;;;;;22.85;85.44;99079.34;5110052;28;20731;-64
2022/08/28 01:54:24;;;;;;;9.65;7.85;;;;;;;22.78;85.99;99079.03;5110258;28;20194;-64
2022/08/28 01:56:51;;;;;;;13.68;7.45;;;;;;;22.75;86.22;99071.31;5109857;28;20302;-64
2022/08/28 01:59:20;;;;;;;15.32;8.85;;;;;;;22.69;87.38;99069.19;5109850;28;20285;-64
2022/08/28 02:01:47;;;;;;;15.80;8.32;;;;;;;22.66;87.86;99070.31;5110043;28;20194;-64
2022/08/28 02:04:16;;;;;;;14.77;8.10;;;;;;;22.61;88.29;99063.72;5110162;28;20802;-65
2022/08/28 02:06:43;;;;;;;13.80;8.00;;;;;;;22.41;89.71;99068.91;5109984;28;20661;-63
2022/08/28 02:09:10;;;;;;;15.93;8.35;;;;;;;22.22;90.39;99058.22;5109723;28;20585;-63
2022/08/28 02:11:38;;;;;;;11.32;7.80;;;;;;;22.17;91.05;99063.03;5109731;28;20194;-64
2022/08/28 02:14:06;;;;;;;9.52;6.93;;;;;;;22.18;91.33;99075.28;5109750;28;20208;-57
2022/08/28 02:16:34;;;;;;;11.68;7.68;;;;;;;22.17;91.91;99068.31;5109905;28;20243;-57
2022/08/28 02:19:01;;;;;;;14.25;8.05;;;;;;;22.16;91.93;99066.63;5109673;28;20252;-65
2022/08/28 02:21:28;;;;;;;14.65;7.28;;;;;;;22.15;91.90;99069.41;5109636;28;20190;-57
2022/08/28 02:23:55;;;;;;;10.13;8.10;;;;;;;22.18;91.72;99074.44;5109465;28;20222;-57
2022/08/28 02:26:22;;;;;;;14.15;8.38;;;;;;;22.08;92.39;99080.50;5111682;28;20285;-57
2022/08/28 02:28:49;;;;;;;9.77;8.07;;;;;;;22.01;92.80;99083.75;5113924;28;20195;-58
2022/08/28 02:31:16;;;;;;;14.63;8.32;;;;;;;21.98;92.59;99084.00;5113756;28;20278;-58
2022/08/28 02:33:46;;;;;;;14.90;7.80;;;;;;;21.97;92.75;99080.53;5113803;28;20585;-58
2022/08/28 02:36:15;;;;;;;19.48;7.45;;;;;;;21.99;92.87;99075.16;5113527;28;20194;-58
2022/08/28 02:38:42;;;;;;;12.35;7.78;;;;;;;22.01;92.67;99081.97;5113793;28;20217;-57
2022/08/28 02:41:10;;;;;;;15.00;7.75;;;;;;;22.06;91.91;99074.50;5113560;28;20685;-57
2022/08/28 02:43:38;;;;;;;13.43;8.80;;;;;;;22.17;90.71;99078.06;5113356;28;20254;-64
2022/08/28 02:46:06;;;;;;;13.27;8.02;;;;;;;22.15;90.55;99078.19;5113525;28;20216;-61
2022/08/28 02:48:35;;;;;;;15.88;7.95;;;;;;;22.14;90.70;99079.13;5113476;28;20285;-64
2022/08/28 02:51:07;;;;;;;13.18;7.85;;;;;;;22.08;91.39;99077.03;5113242;28;20209;-63
2022/08/28 02:53:34;;;;;;;15.45;7.95;;;;;;;21.99;91.78;99072.50;5113644;28;20628;-64
2022/08/28 02:56:02;;;;;;;18.02;8.05;;;;;;;21.96;91.50;99081.47;5112962;28;20198;-64
2022/08/28 02:58:31;;;;;;;10.10;7.72;;;;;;;21.99;90.66;99075.16;5112980;28;20199;-64
2022/08/28 03:00:58;;;;;;;16.50;8.30;;;;;;;21.94;90.09;99077.28;5112806;28;20209;-64
2022/08/28 03:03:26;;;;;;;9.10;8.20;;;;;;;21.97;90.38;99090.25;5112836;28;20250;-64
2022/08/28 03:05:54;;;;;;;8.85;8.05;;;;;;;22.02;89.91;99085.44;5113158;28;20737;-62
2022/08/28 03:08:23;;;;;;;13.25;7.32;;;;;;;22.00;89.49;99092.69;5112701;28;20195;-56
2022/08/28 03:10:50;;;;;;;22.92;8.60;;;;;;;21.99;88.88;99091.00;5112868;28;20567;-58
2022/08/28 03:13:17;;;;;;;12.43;7.68;;;;;;;22.00;88.48;99084.75;5112705;28;20194;-57
2022/08/28 03:15:45;;;;;;;13.30;7.63;;;;;;;22.01;88.39;99089.03;5112492;28;20714;-55
2022/08/28 03:18:13;;;;;;;13.80;7.88;;;;;;;22.01;88.30;99091.69;5112147;28;20324;-56
2022/08/28 03:20:40;;;;;;;10.10;8.15;;;;;;;22.01;87.84;99089.88;5112624;28;20190;-56
2022/08/28 03:23:26;;;;;;;11.60;7.00;;;;;;;22.02;87.63;99093.38;5112415;28;20234;-56
2022/08/28 03:25:55;;;;;;;12.38;8.27;;;;;;;22.10;86.40;99088.31;5112494;28;20198;-56
2022/08/28 03:28:23;;;;;;;13.30;7.53;;;;;;;22.15;85.15;99096.69;5112291;28;20202;-57
2022/08/28 03:30:50;;;;;;;10.65;8.05;;;;;;;22.15;85.09;99096.69;5112351;28;20194;-57
2022/08/28 03:33:19;;;;;;;13.88;7.78;;;;;;;22.14;85.16;99094.16;5112205;28;20293;-55
2022/08/28 03:35:46;;;;;;;9.45;7.80;;;;;;;22.12;85.51;99102.25;5112732;28;20569;-55
2022/08/28 03:38:13;;;;;;;9.40;7.18;;;;;;;22.01;86.09;99099.63;5111000;28;20204;-56
2022/08/28 03:40:42;;;;;;;15.07;7.00;;;;;;;21.95;86.84;99098.31;5112335;28;20230;-55
2022/08/28 03:43:12;;;;;;;11.35;7.82;;;;;;;21.90;87.45;99099.63;5111868;28;20233;-55
2022/08/28 03:45:40;;;;;;;16.52;7.78;;;;;;;21.90;87.73;99102.28;5112154;28;20195;-55
2022/08/28 03:48:07;;;;;;;15.05;7.65;;;;;;;21.85;88.13;99100.03;5112210;28;20207;-55
2022/08/28 03:50:35;;;;;;;15.30;8.95;;;;;;;21.84;88.80;99108.91;5112248;28;20198;-56
2022/08/28 03:53:02;;;;;;;12.10;8.02;;;;;;;21.78;89.52;99104.13;5111950;28;20290;-55
2022/08/28 03:55:29;;;;;;;14.70;7.95;;;;;;;21.72;90.25;99105.47;5111809;28;20230;-56
2022/08/28 03:57:56;;;;;;;21.38;9.48;;;;;;;21.77;90.60;99109.53;5111835;28;20285;-55
2022/08/28 04:00:25;;;;;;;16.17;8.55;;;;;;;21.81;90.61;99114.44;5111039;28;20190;-58
2022/08/28 04:02:52;;;;;;;11.43;8.20;;;;;;;21.79;90.00;99102.31;5110574;28;20190;-58
2022/08/28 04:05:19;;;;;;;11.60;8.73;;;;;;;22.01;89.49;99116.31;5110326;28;20215;-58
2022/08/28 04:07:46;;;;;;;10.68;7.72;;;;;;;22.00;88.66;99103.25;5110504;28;20682;-58
2022/08/28 04:10:13;;;;;;;13.70;8.23;;;;;;;22.03;89.13;99127.59;5110251;28;20701;-57
2022/08/28 04:12:40;;;;;;;17.02;8.13;;;;;;;22.10;88.34;99120.03;5110664;28;20199;-58
2022/08/28 04:15:08;;;;;;;14.63;8.18;;;;;;;22.26;87.96;99133.63;5110604;28;20663;-57
2022/08/28 04:17:39;;;;;;;19.50;8.23;;;;;;;22.39;87.06;99133.47;5110419;28;20191;-59
2022/08/28 04:20:08;;;;;;;13.82;8.45;;;;;;;22.53;86.34;99130.50;5090583;28;20234;-60
2022/08/28 04:22:36;;;;;;;16.88;7.80;;;;;;;22.65;85.25;99131.28;5110766;28;20285;-58
2022/08/28 04:25:03;;;;;;;10.88;7.55;;;;;;;22.68;84.77;99131.03;5111511;28;20720;-58
2022/08/28 04:27:30;;;;;;;10.68;8.15;;;;;;;22.75;84.12;99118.94;5111870;27;20204;-58
2022/08/28 04:29:58;;;;;;;18.02;8.27;;;;;;;23.56;80.71;99134.00;5111390;28;20666;-58
2022/08/28 04:32:25;;;;;;;19.05;7.68;;;;;;;24.29;76.10;99132.69;5111594;28;20282;-58
2022/08/28 04:34:53;;;;;;;14.07;8.05;;;;;;;25.13;72.29;99144.31;5111280;28;20286;-58
2022/08/28 04:37:20;;;;;;;10.80;8.00;;;;;;;25.78;68.96;99134.47;5111673;28;20216;-62
2022/08/28 04:39:47;;;;;;;12.57;7.15;;;;;;;26.71;65.79;99150.00;5111070;28;20194;-58
2022/08/28 04:42:14;;;;;;;15.93;8.43;;;;;;;27.45;61.98;99145.94;5110716;28;20647;-59
2022/08/28 04:44:41;;;;;;;14.57;7.38;;;;;;;28.16;59.20;99157.00;5110158;28;20218;-58
2022/08/28 04:47:08;;;;;;;17.33;7.25;;;;;;;28.45;57.35;99163.72;5110304;28;20229;-58
2022/08/28 04:49:35;;;;;;;14.32;7.72;;;;;;;28.80;56.50;99152.72;5109883;28;20199;-59
2022/08/28 04:52:04;;;;;;;10.70;7.55;;;;;;;29.31;53.46;99158.63;5110062;28;20194;-58
2022/08/28 04:54:33;;;;;;;14.75;7.03;;;;;;;29.70;52.40;99163.16;5110107;28;20684;-59
2022/08/28 04:56:59;;;;;;;10.32;6.28;;;;;;;30.17;50.74;99171.94;5108636;28;20194;-56
2022/08/28 04:59:27;;;;;;;10.25;7.00;;;;;;;30.73;48.81;99167.19;5108745;28;20198;-56
2022/08/28 05:01:54;;;;;;;11.35;7.30;;;;;;;30.93;47.89;99173.69;5106795;28;20201;-54
2022/08/28 05:04:20;;;;;;;10.90;6.82;;;;;;;31.50;46.36;99183.81;5109171;28;20220;-55
2022/08/28 05:06:48;;;;;;;12.07;6.50;;;;;;;32.04;44.97;99153.97;5108410;28;20646;-55
2022/08/28 05:09:18;;;;;;;11.85;6.63;;;;;;;32.41;44.01;99175.22;5108423;28;20650;-57
2022/08/28 05:11:46;;;;;;;12.35;6.72;;;;;;;32.35;43.41;99177.84;5105617;28;20202;-56
2022/08/28 05:14:13;;;;;;;10.35;6.57;;;;;;;32.49;42.99;99174.28;5108196;28;20737;-56
2022/08/28 05:16:42;;;;;;;11.45;7.18;;;;;;;33.14;41.79;99178.53;5108213;28;20518;-57
2022/08/28 05:19:10;;;;;;;15.48;7.88;;;;;;;33.87;40.06;99185.16;5108644;28;20279;-57
2022/08/28 05:21:37;;;;;;;15.40;6.53;;;;;;;34.40;39.32;99188.88;5109560;28;20194;-57
2022/08/28 05:24:05;;;;;;;10.63;6.47;;;;;;;34.92;37.55;99189.94;5109311;28;20762;-56
2022/08/28 05:26:34;;;;;;;9.68;6.88;;;;;;;34.81;38.09;99193.25;5109783;28;20210;-56
2022/08/28 05:29:01;;;;;;;13.60;9.18;;;;;;;35.28;37.14;99198.44;5109647;28;20204;-56
2022/08/28 05:31:30;;;;;;;11.25;6.88;;;;;;;35.81;36.02;99200.97;5109243;28;20202;-57
2022/08/28 05:33:57;;;;;;;12.15;7.28;;;;;;;36.53;34.72;99198.94;5109442;28;20584;-58
2022/08/28 05:36:25;;;;;;;11.32;8.48;;;;;;;36.57;34.71;99195.56;5110017;28;20279;-58
2022/08/28 05:38:56;;;;;;;12.98;6.70;;;;;;;37.19;33.78;99203.84;5109671;28;20201;-59
2022/08/28 05:41:25;;;;;;;17.50;8.88;;;;;;;37.72;32.80;99209.53;5109676;28;20200;-58
2022/08/28 05:43:53;;;;;;;14.00;6.15;;;;;;;38.26;32.34;99210.53;5109675;28;20217;-58
2022/08/28 05:46:21;;;;;;;14.60;6.20;;;;;;;38.66;31.77;99214.31;5109873;28;20194;-59
2022/08/28 05:48:48;;;;;;;13.30;8.38;;;;;;;38.79;31.05;99208.66;5109032;28;20578;-59
2022/08/28 05:51:19;;;;;;;10.57;6.45;;;;;;;38.86;30.81;99216.69;5107828;28;20190;-66
2022/08/28 05:53:48;;;;;;;11.43;7.03;;;;;;;38.73;31.48;99211.47;5105715;28;20198;-67
2022/08/28 05:56:19;;;;;;;12.23;6.45;;;;;;;38.28;32.22;99216.53;5107076;28;20190;-66
2022/08/28 05:58:46;;;;;;;9.65;6.57;;;;;;;38.56;31.36;99213.22;5108675;28;20511;-66
2022/08/28 06:01:18;;;;;;;11.25;5.90;;;;;;;38.90;31.27;99217.06;5111358;28;20201;-59
2022/08/28 06:03:47;;;;;;;9.90;6.80;;;;;;;38.71;31.13;99210.91;5114034;28;20290;-58
2022/08/28 06:06:14;;;;;;;8.65;6.18;;;;;;;38.56;31.27;99215.94;5114042;28;20193;-66
2022/08/28 06:08:41;;;;;;;11.68;6.25;;;;;;;38.47;31.51;99218.13;5114022;28;20275;-67
2022/08/28 06:11:08;;;;;;;11.23;5.55;;;;;;;38.47;31.88;99215.44;5113879;28;20198;-66
2022/08/28 06:13:36;;;;;;;14.38;5.80;;;;;;;38.99;31.56;99215.66;5113060;28;20202;-66
2022/08/28 06:16:03;;;;;;;15.07;6.00;;;;;;;39.33;30.51;99220.28;5112935;28;20201;-67
2022/08/28 06:18:31;;;;;;;16.45;6.50;;;;;;;39.41;30.81;99217.22;5112245;28;20759;-66
2022/08/28 06:21:01;;;;;;;33.55;9.38;;;;;;;39.50;30.77;99221.25;5112516;28;20669;-66
2022/08/28 06:23:29;;;;;;;13.23;6.43;;;;;;;39.44;30.22;99222.19;5113406;28;20194;-66
2022/08/28 06:25:56;;;;;;;9.27;6.13;;;;;;;39.11;31.18;99219.22;5113476;28;20220;-66
2022/08/28 06:28:25;;;;;;;13.05;6.30;;;;;;;38.70;31.52;99226.34;5112971;27;20201;-66
2022/08/28 06:30:54;;;;;;;8.80;6.15;;;;;;;38.48;31.87;99226.03;5112651;28;20649;-66
2022/08/28 06:33:21;;;;;;;7.88;6.25;;;;;;;38.34;32.70;99218.31;5111768;28;20194;-65
2022/08/28 06:35:52;;;;;;;16.88;6.97;;;;;;;39.08;31.39;99220.50;5112718;28;20186;-65
2022/08/28 06:38:20;;;;;;;15.60;6.13;;;;;;;40.10;30.53;99223.56;5112959;28;20733;-65
2022/08/28 06:40:49;;;;;;;16.52;6.63;;;;;;;40.12;29.83;99224.16;5112612;28;20221;-66
2022/08/28 06:43:17;;;;;;;16.67;6.80;;;;;;;39.33;31.07;99222.97;5113207;28;20519;-66
2022/08/28 06:45:46;;;;;;;10.55;5.85;;;;;;;39.95;29.77;99215.13;5113383;28;20222;-59
2022/08/28 06:48:15;;;;;;;11.73;6.25;;;;;;;39.52;30.55;99221.81;5113374;28;20196;-58
2022/08/28 06:50:43;;;;;;;20.40;7.05;;;;;;;39.65;30.55;99236.19;5112763;27;20897;-59
2022/08/28 06:53:14;;;;;;;14.63;7.65;;;;;;;40.22;29.36;99229.78;5109552;28;20216;-60
2022/08/28 06:55:42;;;;;;;12.25;6.70;;;;;;;40.57;28.99;99224.19;5111984;28;20205;-60
2022/08/28 06:58:10;;;;;;;9.45;6.60;;;;;;;41.17;27.63;99225.47;5109382;28;20295;-58
2022/08/28 07:00:37;;;;;;;10.77;6.60;;;;;;;40.89;28.02;99221.75;5111868;28;20194;-58
2022/08/28 07:03:05;;;;;;;13.25;6.90;;;;;;;40.95;28.20;99225.38;5111598;28;20277;-67
2022/08/28 07:05:32;;;;;;;12.02;6.55;;;;;;;40.25;28.43;99229.28;5112324;28;20218;-66
2022/08/28 07:07:59;;;;;;;12.40;6.65;;;;;;;40.24;29.14;99222.19;5113100;28;20194;-67
2022/08/28 07:10:30;;;;;;;14.13;6.70;;;;;;;40.57;28.25;99226.06;5113146;28;20236;-66
2022/08/28 07:12:57;;;;;;;13.73;6.75;;;;;;;41.29;27.93;99221.56;5112680;28;20204;-66
2022/08/28 07:15:24;;;;;;;11.25;7.05;;;;;;;41.81;26.87;99225.81;5112928;27;20718;-67
2022/08/28 07:17:51;;;;;;;11.32;7.15;;;;;;;41.60;26.86;99220.09;5112476;28;20198;-59
2022/08/28 07:20:18;;;;;;;11.05;6.63;;;;;;;41.67;26.17;99217.19;5112784;28;20194;-60
2022/08/28 07:22:45;;;;;;;8.07;6.45;;;;;;;40.85;27.48;99226.06;5113242;28;20248;-58
2022/08/28 07:25:12;;;;;;;16.40;7.50;;;;;;;41.38;26.32;99221.97;5111966;28;20218;-58
2022/08/28 07:27:40;;;;;;;10.82;6.70;;;;;;;41.64;26.40;99215.81;5112464;28;20208;-58
2022/08/28 07:30:09;;;;;;;10.40;7.43;;;;;;;42.47;25.95;99223.84;5112416;28;20198;-58
2022/08/28 07:32:35;;;;;;;13.98;6.10;;;;;;;43.02;25.14;99235.25;5112531;28;20252;-59
2022/08/28 07:35:02;;;;;;;13.05;6.53;;;;;;;43.48;24.67;99230.09;5112412;28;20190;-58
2022/08/28 07:37:29;;;;;;;10.10;5.50;;;;;;;43.45;23.98;99226.00;5112425;28;20198;-59
2022/08/28 07:39:56;;;;;;;11.45;6.22;;;;;;;42.73;24.41;99228.47;5112483;28;20591;-66
2022/08/28 07:45:10;;;;;;;21.25;6.80;;;;;;;42.46;25.12;99225.75;5112446;28;20229;-66
2022/08/28 07:47:37;;;;;;;11.73;5.82;;;;;;;42.46;25.26;99222.19;5112340;28;20322;-67
2022/08/28 07:50:05;;;;;;;12.57;6.00;;;;;;;42.42;24.89;99223.81;5112120;28;20732;-66
2022/08/28 07:52:32;;;;;;;11.32;5.47;;;;;;;42.71;24.89;99230.63;5112154;28;20212;-67
2022/08/28 07:54:59;;;;;;;9.50;5.97;;;;;;;42.90;24.66;99229.16;5111961;28;20196;-60
2022/08/28 07:57:26;;;;;;;11.88;6.22;;;;;;;42.83;24.90;99225.00;5111924;28;20198;-58
2022/08/28 07:59:53;;;;;;;11.27;6.07;;;;;;;43.27;23.81;99220.16;5112028;28;20198;-58
2022/08/28 08:02:21;;;;;;;10.65;5.70;;;;;;;43.35;23.59;99227.84;5111951;28;20790;-59
2022/08/28 08:04:48;;;;;;;16.35;6.10;;;;;;;43.39;23.77;99223.50;5111966;28;20600;-58
2022/08/28 08:07:16;;;;;;;11.27;5.90;;;;;;;43.86;23.57;99222.66;5112055;28;20277;-67
2022/08/28 08:09:45;;;;;;;20.70;6.03;;;;;;;44.22;23.21;99218.13;5111733;28;20194;-59
2022/08/28 08:12:13;;;;;;;10.18;5.90;;;;;;;43.96;23.03;99209.84;5092070;28;20317;-59
2022/08/28 08:14:42;;;;;;;9.27;6.55;;;;;;;44.85;22.59;99225.06;5091109;28;20301;-59
2022/08/28 08:17:10;;;;;;;15.10;6.05;;;;;;;44.48;22.76;99220.63;5090252;28;20605;-60
2022/08/28 08:19:39;;;;;;;11.93;5.97;;;;;;;44.64;22.41;99218.75;5090469;28;20230;-68
2022/08/28 08:22:06;;;;;;;13.25;5.63;;;;;;;45.21;22.09;99212.16;5090476;28;20294;-66
2022/08/28 08:24:34;;;;;;;12.35;5.82;;;;;;;45.20;21.80;99216.81;5089719;28;20214;-67
2022/08/28 08:27:02;;;;;;;10.38;5.63;;;;;;;45.57;21.56;99215.66;5117912;27;20217;-66
2022/08/28 08:29:31;;;;;;;10.85;6.47;;;;;;;45.77;21.04;99210.06;5130768;27;20608;-66
2022/08/28 08:32:03;;;;;;;11.25;6.45;;;;;;;45.54;21.65;99210.72;5130175;27;20213;-66
2022/08/28 08:34:30;;;;;;;9.07;5.72;;;;;;;45.46;22.04;99208.53;5132300;27;20653;-65
2022/08/28 08:36:59;;;;;;;17.70;6.18;;;;;;;45.70;21.40;99208.75;5131534;27;20193;-66
2022/08/28 08:39:25;;;;;;;11.18;6.30;;;;;;;45.65;21.35;99198.59;5132003;27;20661;-65
2022/08/28 08:41:57;;;;;;;11.88;5.35;;;;;;;45.01;21.80;99203.97;5110017;27;20263;-66
2022/08/28 08:44:27;;;;;;;11.23;5.72;;;;;;;45.19;21.97;99204.22;5092792;28;20293;-66
2022/08/28 08:47:03;;;;;;;6.95;5.47;;;;;;;45.13;22.04;99204.50;5107651;28;20274;-65
2022/08/28 08:49:34;;;;;;;10.70;5.93;;;;;;;45.41;21.49;99206.59;5110361;28;20198;-59
2022/08/28 08:52:20;;;;;;;16.58;6.03;;;;;;;45.25;21.82;99201.47;5110701;28;20197;-60
2022/08/28 08:55:04;;;;;;;10.88;5.88;;;;;;;43.84;22.29;99203.75;5109574;28;20198;-60
2022/08/28 08:57:32;;;;;;;15.90;5.85;;;;;;;44.02;22.15;99199.75;5109948;28;20198;-58
2022/08/28 09:00:00;;;;;;;13.30;5.57;;;;;;;44.01;21.52;99206.31;5110297;28;20201;-65
2022/08/28 09:02:32;;;;;;;10.27;5.80;;;;;;;43.92;21.92;99205.97;5110603;28;20651;-66
2022/08/28 09:05:04;;;;;;;12.38;6.03;;;;;;;44.93;21.67;99194.34;5107684;28;20228;-66
2022/08/28 09:07:37;;;;;;;16.85;6.47;;;;;;;44.78;22.13;99186.19;5110307;28;20232;-65
2022/08/28 09:10:07;;;;;;;11.18;6.40;;;;;;;44.65;21.81;99181.22;5108078;28;20194;-66
2022/08/28 09:12:48;;;;;;;17.75;6.15;;;;;;;45.40;21.48;99193.19;5110376;28;20575;-66
2022/08/28 09:15:20;;;;;;;14.95;6.13;;;;;;;45.81;21.12;99194.69;5108805;28;20194;-66
2022/08/28 09:17:51;;;;;;;10.43;5.28;;;;;;;45.57;21.26;99180.00;5110251;28;20199;-67
2022/08/28 09:20:21;;;;;;;8.63;5.63;;;;;;;46.35;20.68;99184.78;5110310;28;20689;-66
2022/08/28 09:22:50;;;;;;;14.40;6.10;;;;;;;47.24;20.19;99187.00;5109895;28;20228;-59
2022/08/28 09:25:49;;;;;;;13.52;6.20;;;;;;;46.34;20.79;99181.22;5107263;28;20214;-58
2022/08/28 09:28:20;;;;;;;11.80;5.78;;;;;;;46.78;20.01;99181.16;5107514;28;20194;-59
2022/08/28 09:31:01;;;;;;;9.10;5.18;;;;;;;46.51;20.48;99178.88;5109874;28;20204;-59
2022/08/28 09:33:41;;;;;;;15.05;5.35;;;;;;;46.71;19.84;99179.84;5106899;28;20590;-58
2022/08/28 09:36:30;;;;;;;12.25;5.38;;;;;;;46.79;19.51;99180.03;5106308;28;20638;-58
2022/08/28 09:39:14;;;;;;;13.85;5.90;;;;;;;45.97;20.23;99176.22;5108185;28;20204;-59
2022/08/28 09:44:48;;;;;;;8.10;5.35;;;;;;;47.89;18.61;99179.06;5109865;28;20205;-59
2022/08/28 09:47:41;;;;;;;12.45;5.80;;;;;;;48.88;18.10;99178.06;5109920;28;20201;-59
2022/08/28 09:50:27;;;;;;;7.72;5.53;;;;;;;49.74;18.11;99171.69;5109949;28;20288;-60
2022/08/28 09:52:56;;;;;;;13.65;5.50;;;;;;;47.49;19.48;99166.66;5110113;28;20212;-60
2022/08/28 09:55:36;;;;;;;15.38;5.60;;;;;;;45.94;19.99;99156.78;5110026;28;20190;-59
2022/08/28 09:58:04;;;;;;;15.35;5.20;;;;;;;46.02;19.73;99158.94;5109634;28;20587;-59
2022/08/28 10:00:35;;;;;;;11.02;5.28;;;;;;;45.88;19.95;99155.97;5109604;28;20197;-58
2022/08/28 10:03:13;;;;;;;11.32;5.53;;;;;;;44.63;21.21;99150.56;5110245;28;20200;-59
2022/08/28 10:05:49;;;;;;;8.10;5.93;;;;;;;43.34;22.58;99149.72;5109894;28;20217;-59
2022/08/28 10:08:31;;;;;;;14.05;6.13;;;;;;;42.33;23.53;99147.84;5109806;28;20204;-59
2022/08/28 10:11:09;;;;;;;9.23;5.40;;;;;;;40.88;24.62;99138.44;5109832;28;20229;-59
2022/08/28 10:13:48;;;;;;;12.80;5.63;;;;;;;39.84;25.66;99137.16;5109236;28;20587;-59
2022/08/28 10:16:29;;;;;;;21.48;6.32;;;;;;;39.20;26.59;99131.75;5107790;28;20202;-59
2022/08/28 10:19:05;;;;;;;12.23;5.40;;;;;;;38.67;26.98;99137.28;5109646;28;20221;-58
2022/08/28 10:21:43;;;;;;;12.95;6.80;;;;;;;38.18;28.19;99121.38;5110022;28;20667;-58
2022/08/28 10:24:28;;;;;;;15.88;6.13;;;;;;;37.33;29.16;99126.88;5109907;28;20585;-58
2022/08/28 10:27:05;;;;;;;10.00;5.97;;;;;;;36.96;29.34;99118.69;5109828;28;20672;-58
2022/08/28 10:29:47;;;;;;;13.80;6.15;;;;;;;36.72;29.28;99104.16;5109617;28;20692;-60
2022/08/28 10:32:38;;;;;;;20.65;6.10;;;;;;;36.57;29.43;99111.75;5109709;28;20242;-59
2022/08/28 10:35:11;;;;;;;11.48;5.43;;;;;;;36.50;30.13;99116.38;5109582;28;20619;-57
2022/08/28 10:37:51;;;;;;;9.10;5.90;;;;;;;36.50;30.23;99112.84;5109630;28;20206;-58
2022/08/28 10:40:24;;;;;;;13.52;5.95;;;;;;;36.37;30.70;99102.97;5109568;28;20285;-60
2022/08/28 10:43:00;;;;;;;17.05;6.70;;;;;;;36.44;30.43;99081.31;5109961;28;20581;-59
2022/08/28 10:45:31;;;;;;;7.15;6.10;;;;;;;36.51;30.29;99099.13;5109017;28;20218;-58
2022/08/28 10:48:01;;;;;;;8.00;6.00;;;;;;;36.34;30.53;99098.03;5112138;28;20211;-57
2022/08/28 10:50:33;;;;;;;20.67;6.57;;;;;;;36.14;30.67;99073.81;5112326;28;20194;-58
2022/08/28 10:53:06;;;;;;;14.75;5.82;;;;;;;36.06;31.20;99090.31;5112703;28;20199;-58
2022/08/28 10:55:38;;;;;;;9.77;5.75;;;;;;;35.79;31.59;99072.59;5111564;28;20202;-59
2022/08/28 10:58:10;;;;;;;21.85;7.10;;;;;;;35.94;31.75;99075.84;5111582;28;20191;-59
2022/08/28 11:00:39;;;;;;;11.43;5.88;;;;;;;36.02;31.57;99079.09;5111925;28;20202;-59
2022/08/28 11:03:10;;;;;;;11.80;6.05;;;;;;;36.09;30.99;99078.22;5112799;28;20285;-59
2022/08/28 11:05:47;;;;;;;15.55;6.05;;;;;;;36.02;31.13;99073.69;5112935;28;20222;-65
2022/08/28 11:08:26;;;;;;;14.45;6.07;;;;;;;35.97;30.98;99073.53;5112906;28;20209;-65
2022/08/28 11:10:55;;;;;;;10.80;5.88;;;;;;;35.95;31.84;99066.69;5112866;28;20195;-65
2022/08/28 11:13:49;;;;;;;13.05;6.53;;;;;;;35.83;31.79;99063.84;5112681;28;20567;-64
2022/08/28 11:16:22;;;;;;;14.50;6.90;;;;;;;35.63;32.15;99057.72;5113016;28;20216;-58
2022/08/28 11:19:22;;;;;;;11.52;6.20;;;;;;;35.51;32.70;99054.06;5112680;28;20601;-58
2022/08/28 11:21:53;;;;;;;19.58;6.35;;;;;;;35.44;35.12;99054.06;5112984;28;20194;-59
2022/08/28 11:24:35;;;;;;;18.08;6.60;;;;;;;35.34;34.67;99061.81;5112667;28;20201;-59
2022/08/28 11:27:17;;;;;;;11.13;6.80;;;;;;;35.12;32.70;99058.53;5112683;28;20223;-64
2022/08/28 11:30:29;;;;;;;13.43;6.40;;;;;;;35.00;33.54;99057.53;5112593;28;20199;-64
2022/08/28 11:33:07;;;;;;;17.00;7.03;;;;;;;34.88;34.09;99046.56;5112528;28;20281;-63
2022/08/28 11:35:41;;;;;;;15.80;6.50;;;;;;;34.78;35.15;99050.75;5112442;28;20194;-64
2022/08/28 11:38:09;;;;;;;14.80;6.75;;;;;;;34.72;36.17;99048.88;5112464;28;20217;-64
2022/08/28 11:40:55;;;;;;;12.00;7.03;;;;;;;34.74;32.81;99057.59;5112181;28;20230;-64
2022/08/28 11:43:35;;;;;;;19.13;7.93;;;;;;;34.69;33.04;99052.00;5112304;28;20190;-64
2022/08/28 11:46:25;;;;;;;21.35;6.32;;;;;;;34.38;31.25;99055.38;5112338;28;20226;-64
2022/08/28 11:48:55;;;;;;;21.60;6.43;;;;;;;34.55;31.78;99053.88;5112505;28;20202;-65